KOVE/OVE METAR and TAF weather

Enter ICAO airport designator
Station Type Date Time Source
KOVE METAR 2020/09/20 00:53 UTC NOAA

KOVE 200053Z AUTO 28003KT 7SM CLR 29/11 A2988 RMK AO2 SLP119 T02890111


Station Type Date Time Source
KOVE Decoded METAR 2020/09/20 00:53 UTC NOAA

OROVILLE MUNICIPAL AIRPORT, CA, United States (KOVE) 39-30N 121-37W 58M
Sep 19, 2020 - 08:53 PM EDT / 2020.09.20 0053 UTC
Wind: from the W (280 degrees) at 3 MPH (3 KT):0
Visibility: 7 mile(s):0
Sky conditions: clear
Temperature: 84.0 F (28.9 C)
Dew Point: 52.0 F (11.1 C)
Relative Humidity: 33%
Pressure (altimeter): 29.88 in. Hg (1011 hPa)
ob: KOVE 200053Z AUTO 28003KT 7SM CLR 29/11 A2988 RMK AO2 SLP119 T02890111
cycle: 1

Station Type Date Time Source
KOVE TAF UTC NOAA

Error!

Example: see airport list